sensor_id;sensor_type;location;lat;lon;timestamp;P1;durP1;ratioP1;P2;durP2;ratioP2
36597;SDS011;22607;49.550;11.940;2023-03-19T00:00:25;9.27;;;2.90;;
36597;SDS011;22607;49.550;11.940;2023-03-19T00:02:52;10.57;;;4.20;;
36597;SDS011;22607;49.550;11.940;2023-03-19T00:05:18;10.70;;;4.80;;
36597;SDS011;22607;49.550;11.940;2023-03-19T00:07:45;8.48;;;3.65;;
36597;SDS011;22607;49.550;11.940;2023-03-19T00:10:12;9.88;;;3.85;;
36597;SDS011;22607;49.550;11.940;2023-03-19T00:12:38;10.07;;;4.20;;
36597;SDS011;22607;49.550;11.940;2023-03-19T00:15:05;10.15;;;3.70;;
36597;SDS011;22607;49.550;11.940;2023-03-19T00:17:34;9.05;;;3.78;;
36597;SDS011;22607;49.550;11.940;2023-03-19T00:20:01;10.60;;;3.72;;
36597;SDS011;22607;49.550;11.940;2023-03-19T00:22:27;9.23;;;3.38;;
36597;SDS011;22607;49.550;11.940;2023-03-19T00:24:54;9.73;;;3.78;;
36597;SDS011;22607;49.550;11.940;2023-03-19T00:27:20;8.63;;;3.50;;
36597;SDS011;22607;49.550;11.940;2023-03-19T00:29:47;9.32;;;3.92;;
36597;SDS011;22607;49.550;11.940;2023-03-19T00:32:13;9.30;;;3.40;;
36597;SDS011;22607;49.550;11.940;2023-03-19T00:34:40;9.93;;;4.05;;
36597;SDS011;22607;49.550;11.940;2023-03-19T00:37:08;9.82;;;3.47;;
36597;SDS011;22607;49.550;11.940;2023-03-19T00:39:35;8.63;;;3.75;;
36597;SDS011;22607;49.550;11.940;2023-03-19T00:42:01;8.45;;;3.28;;
36597;SDS011;22607;49.550;11.940;2023-03-19T00:44:27;9.32;;;3.17;;
36597;SDS011;22607;49.550;11.940;2023-03-19T00:46:54;9.60;;;3.17;;
36597;SDS011;22607;49.550;11.940;2023-03-19T00:49:22;9.10;;;3.88;;
36597;SDS011;22607;49.550;11.940;2023-03-19T00:51:50;10.23;;;4.18;;
36597;SDS011;22607;49.550;11.940;2023-03-19T00:54:16;9.63;;;3.88;;
36597;SDS011;22607;49.550;11.940;2023-03-19T00:56:43;11.15;;;4.75;;
36597;SDS011;22607;49.550;11.940;2023-03-19T00:59:09;11.57;;;4.22;;
36597;SDS011;22607;49.550;11.940;2023-03-19T01:01:36;10.52;;;4.35;;
36597;SDS011;22607;49.550;11.940;2023-03-19T01:04:03;10.43;;;3.72;;
36597;SDS011;22607;49.550;11.940;2023-03-19T01:06:29;9.25;;;3.70;;
36597;SDS011;22607;49.550;11.940;2023-03-19T01:08:56;9.20;;;3.65;;
36597;SDS011;22607;49.550;11.940;2023-03-19T01:11:22;8.95;;;3.25;;
36597;SDS011;22607;49.550;11.940;2023-03-19T01:13:49;10.82;;;3.70;;
36597;SDS011;22607;49.550;11.940;2023-03-19T01:16:15;11.73;;;4.43;;
36597;SDS011;22607;49.550;11.940;2023-03-19T01:18:42;10.35;;;3.97;;
36597;SDS011;22607;49.550;11.940;2023-03-19T01:21:08;9.80;;;4.13;;
36597;SDS011;22607;49.550;11.940;2023-03-19T01:23:35;12.07;;;4.50;;
36597;SDS011;22607;49.550;11.940;2023-03-19T01:26:02;10.88;;;4.18;;
36597;SDS011;22607;49.550;11.940;2023-03-19T01:28:30;10.35;;;3.95;;
36597;SDS011;22607;49.550;11.940;2023-03-19T01:31:00;11.00;;;3.95;;
36597;SDS011;22607;49.550;11.940;2023-03-19T01:33:30;12.05;;;4.35;;
36597;SDS011;22607;49.550;11.940;2023-03-19T01:35:58;13.63;;;4.90;;
36597;SDS011;22607;49.550;11.940;2023-03-19T01:38:29;11.13;;;4.07;;
36597;SDS011;22607;49.550;11.940;2023-03-19T01:40:58;8.95;;;3.95;;
36597;SDS011;22607;49.550;11.940;2023-03-19T01:43:25;10.30;;;4.30;;
36597;SDS011;22607;49.550;11.940;2023-03-19T01:45:56;8.93;;;3.83;;
36597;SDS011;22607;49.550;11.940;2023-03-19T01:48:27;9.93;;;3.55;;
36597;SDS011;22607;49.550;11.940;2023-03-19T01:50:57;10.13;;;3.83;;
36597;SDS011;22607;49.550;11.940;2023-03-19T01:53:26;7.90;;;2.90;;
36597;SDS011;22607;49.550;11.940;2023-03-19T01:55:58;9.75;;;3.50;;
36597;SDS011;22607;49.550;11.940;2023-03-19T01:58:29;9.82;;;4.07;;
36597;SDS011;22607;49.550;11.940;2023-03-19T02:00:56;12.32;;;5.00;;
36597;SDS011;22607;49.550;11.940;2023-03-19T02:03:23;10.73;;;4.25;;
36597;SDS011;22607;49.550;11.940;2023-03-19T02:05:50;11.68;;;4.63;;
36597;SDS011;22607;49.550;11.940;2023-03-19T02:08:18;10.93;;;4.03;;
36597;SDS011;22607;49.550;11.940;2023-03-19T02:10:48;11.15;;;3.53;;
36597;SDS011;22607;49.550;11.940;2023-03-19T02:13:17;11.73;;;5.00;;
36597;SDS011;22607;49.550;11.940;2023-03-19T02:15:43;9.43;;;4.10;;
36597;SDS011;22607;49.550;11.940;2023-03-19T02:18:10;10.60;;;4.60;;
36597;SDS011;22607;49.550;11.940;2023-03-19T02:26:14;12.25;;;4.03;;
36597;SDS011;22607;49.550;11.940;2023-03-19T02:28:43;9.90;;;3.60;;
36597;SDS011;22607;49.550;11.940;2023-03-19T02:31:14;13.90;;;4.22;;
36597;SDS011;22607;49.550;11.940;2023-03-19T02:33:42;9.52;;;3.55;;
36597;SDS011;22607;49.550;11.940;2023-03-19T02:36:13;10.70;;;4.82;;
36597;SDS011;22607;49.550;11.940;2023-03-19T02:38:42;8.63;;;3.90;;
36597;SDS011;22607;49.550;11.940;2023-03-19T02:41:12;11.55;;;4.20;;
36597;SDS011;22607;49.550;11.940;2023-03-19T02:43:39;9.35;;;4.40;;
36597;SDS011;22607;49.550;11.940;2023-03-19T02:46:09;10.38;;;4.90;;
36597;SDS011;22607;49.550;11.940;2023-03-19T02:48:38;12.45;;;4.00;;
36597;SDS011;22607;49.550;11.940;2023-03-19T02:51:06;12.95;;;4.28;;
36597;SDS011;22607;49.550;11.940;2023-03-19T02:53:34;10.27;;;4.43;;
36597;SDS011;22607;49.550;11.940;2023-03-19T02:56:01;8.65;;;3.75;;
36597;SDS011;22607;49.550;11.940;2023-03-19T02:58:27;10.23;;;4.03;;
36597;SDS011;22607;49.550;11.940;2023-03-19T03:00:54;11.20;;;4.10;;
36597;SDS011;22607;49.550;11.940;2023-03-19T03:03:20;10.95;;;4.35;;
36597;SDS011;22607;49.550;11.940;2023-03-19T03:05:47;11.23;;;4.43;;
36597;SDS011;22607;49.550;11.940;2023-03-19T03:08:13;11.23;;;4.40;;
36597;SDS011;22607;49.550;11.940;2023-03-19T03:10:40;10.90;;;4.90;;
36597;SDS011;22607;49.550;11.940;2023-03-19T03:13:07;10.43;;;4.65;;
36597;SDS011;22607;49.550;11.940;2023-03-19T03:15:34;9.18;;;3.60;;
36597;SDS011;22607;49.550;11.940;2023-03-19T03:18:00;11.50;;;4.50;;
36597;SDS011;22607;49.550;11.940;2023-03-19T03:20:27;10.35;;;4.10;;
36597;SDS011;22607;49.550;11.940;2023-03-19T03:22:54;8.68;;;3.40;;
36597;SDS011;22607;49.550;11.940;2023-03-19T03:25:21;12.30;;;5.05;;
36597;SDS011;22607;49.550;11.940;2023-03-19T03:27:48;10.15;;;4.63;;
36597;SDS011;22607;49.550;11.940;2023-03-19T03:30:14;12.05;;;4.95;;
36597;SDS011;22607;49.550;11.940;2023-03-19T03:32:42;9.93;;;4.55;;
36597;SDS011;22607;49.550;11.940;2023-03-19T03:35:09;12.38;;;5.43;;
36597;SDS011;22607;49.550;11.940;2023-03-19T03:37:36;12.20;;;5.00;;
36597;SDS011;22607;49.550;11.940;2023-03-19T03:40:03;12.60;;;4.72;;
36597;SDS011;22607;49.550;11.940;2023-03-19T03:42:34;11.65;;;5.30;;
36597;SDS011;22607;49.550;11.940;2023-03-19T03:45:02;10.32;;;4.57;;
36597;SDS011;22607;49.550;11.940;2023-03-19T03:47:29;11.43;;;4.25;;
36597;SDS011;22607;49.550;11.940;2023-03-19T03:49:55;10.88;;;4.82;;
36597;SDS011;22607;49.550;11.940;2023-03-19T03:52:22;12.80;;;5.68;;
36597;SDS011;22607;49.550;11.940;2023-03-19T03:54:49;12.88;;;4.40;;
36597;SDS011;22607;49.550;11.940;2023-03-19T03:57:15;12.27;;;5.07;;
36597;SDS011;22607;49.550;11.940;2023-03-19T03:59:42;10.90;;;4.78;;
36597;SDS011;22607;49.550;11.940;2023-03-19T04:02:08;11.10;;;4.57;;
36597;SDS011;22607;49.550;11.940;2023-03-19T04:04:35;11.07;;;5.28;;
36597;SDS011;22607;49.550;11.940;2023-03-19T04:07:02;10.32;;;4.50;;
36597;SDS011;22607;49.550;11.940;2023-03-19T04:09:28;10.27;;;3.90;;
36597;SDS011;22607;49.550;11.940;2023-03-19T04:11:56;11.43;;;4.28;;
36597;SDS011;22607;49.550;11.940;2023-03-19T04:14:22;9.05;;;3.90;;
36597;SDS011;22607;49.550;11.940;2023-03-19T04:16:49;12.00;;;5.13;;
36597;SDS011;22607;49.550;11.940;2023-03-19T04:19:16;12.82;;;5.20;;
36597;SDS011;22607;49.550;11.940;2023-03-19T04:21:42;11.45;;;4.80;;
36597;SDS011;22607;49.550;11.940;2023-03-19T04:24:11;11.38;;;4.47;;
36597;SDS011;22607;49.550;11.940;2023-03-19T04:26:38;14.45;;;4.35;;
36597;SDS011;22607;49.550;11.940;2023-03-19T04:29:05;10.32;;;4.60;;
36597;SDS011;22607;49.550;11.940;2023-03-19T04:31:33;10.85;;;4.60;;
36597;SDS011;22607;49.550;11.940;2023-03-19T04:34:00;12.77;;;4.47;;
36597;SDS011;22607;49.550;11.940;2023-03-19T04:36:27;13.30;;;4.32;;
36597;SDS011;22607;49.550;11.940;2023-03-19T04:38:53;11.50;;;4.82;;
36597;SDS011;22607;49.550;11.940;2023-03-19T04:41:20;9.88;;;4.15;;
36597;SDS011;22607;49.550;11.940;2023-03-19T04:43:47;11.48;;;4.68;;
36597;SDS011;22607;49.550;11.940;2023-03-19T04:46:14;9.95;;;3.80;;
36597;SDS011;22607;49.550;11.940;2023-03-19T04:48:40;10.00;;;3.88;;
36597;SDS011;22607;49.550;11.940;2023-03-19T04:51:07;10.95;;;4.03;;
36597;SDS011;22607;49.550;11.940;2023-03-19T04:53:35;11.30;;;4.78;;
36597;SDS011;22607;49.550;11.940;2023-03-19T04:56:03;9.75;;;3.88;;
36597;SDS011;22607;49.550;11.940;2023-03-19T04:58:30;10.55;;;4.78;;
36597;SDS011;22607;49.550;11.940;2023-03-19T05:00:56;10.35;;;4.47;;
36597;SDS011;22607;49.550;11.940;2023-03-19T05:03:23;13.18;;;6.25;;
36597;SDS011;22607;49.550;11.940;2023-03-19T05:05:51;12.98;;;6.03;;
36597;SDS011;22607;49.550;11.940;2023-03-19T05:08:18;14.55;;;5.72;;
36597;SDS011;22607;49.550;11.940;2023-03-19T05:10:45;13.45;;;5.13;;
36597;SDS011;22607;49.550;11.940;2023-03-19T05:13:12;10.88;;;4.53;;
36597;SDS011;22607;49.550;11.940;2023-03-19T05:15:40;13.88;;;5.57;;
36597;SDS011;22607;49.550;11.940;2023-03-19T05:18:08;10.98;;;4.88;;
36597;SDS011;22607;49.550;11.940;2023-03-19T05:20:36;11.40;;;4.68;;
36597;SDS011;22607;49.550;11.940;2023-03-19T05:23:02;11.27;;;4.72;;
36597;SDS011;22607;49.550;11.940;2023-03-19T05:25:29;12.18;;;5.43;;
36597;SDS011;22607;49.550;11.940;2023-03-19T05:27:56;13.07;;;5.63;;
36597;SDS011;22607;49.550;11.940;2023-03-19T05:30:22;11.23;;;5.57;;
36597;SDS011;22607;49.550;11.940;2023-03-19T05:32:48;10.73;;;5.30;;
36597;SDS011;22607;49.550;11.940;2023-03-19T05:35:15;12.60;;;5.15;;
36597;SDS011;22607;49.550;11.940;2023-03-19T05:37:42;11.40;;;4.93;;
36597;SDS011;22607;49.550;11.940;2023-03-19T05:40:09;12.93;;;5.18;;
36597;SDS011;22607;49.550;11.940;2023-03-19T05:42:37;13.73;;;5.47;;
36597;SDS011;22607;49.550;11.940;2023-03-19T05:45:04;12.38;;;5.20;;
36597;SDS011;22607;49.550;11.940;2023-03-19T05:47:30;11.73;;;4.90;;
36597;SDS011;22607;49.550;11.940;2023-03-19T05:49:57;12.50;;;6.00;;
36597;SDS011;22607;49.550;11.940;2023-03-19T05:52:25;12.93;;;6.38;;
36597;SDS011;22607;49.550;11.940;2023-03-19T05:54:51;12.43;;;5.22;;
36597;SDS011;22607;49.550;11.940;2023-03-19T05:57:18;14.63;;;5.10;;
36597;SDS011;22607;49.550;11.940;2023-03-19T05:59:44;10.70;;;5.00;;
36597;SDS011;22607;49.550;11.940;2023-03-19T06:02:11;10.55;;;4.60;;
36597;SDS011;22607;49.550;11.940;2023-03-19T06:04:37;11.80;;;5.30;;
36597;SDS011;22607;49.550;11.940;2023-03-19T06:07:04;10.48;;;4.63;;
36597;SDS011;22607;49.550;11.940;2023-03-19T06:09:32;10.68;;;4.35;;
36597;SDS011;22607;49.550;11.940;2023-03-19T06:11:59;10.90;;;5.43;;
36597;SDS011;22607;49.550;11.940;2023-03-19T06:14:26;12.25;;;5.50;;
36597;SDS011;22607;49.550;11.940;2023-03-19T06:16:52;13.25;;;5.55;;
36597;SDS011;22607;49.550;11.940;2023-03-19T06:19:18;12.10;;;4.72;;
36597;SDS011;22607;49.550;11.940;2023-03-19T06:21:46;12.00;;;4.97;;
36597;SDS011;22607;49.550;11.940;2023-03-19T06:24:17;9.25;;;4.07;;
36597;SDS011;22607;49.550;11.940;2023-03-19T06:26:43;11.93;;;4.80;;
36597;SDS011;22607;49.550;11.940;2023-03-19T06:29:10;12.15;;;5.40;;
36597;SDS011;22607;49.550;11.940;2023-03-19T06:31:36;9.75;;;4.78;;
36597;SDS011;22607;49.550;11.940;2023-03-19T06:34:05;12.27;;;5.80;;
36597;SDS011;22607;49.550;11.940;2023-03-19T06:36:31;10.70;;;5.13;;
36597;SDS011;22607;49.550;11.940;2023-03-19T06:38:58;13.07;;;6.50;;
36597;SDS011;22607;49.550;11.940;2023-03-19T06:41:24;11.32;;;5.57;;
36597;SDS011;22607;49.550;11.940;2023-03-19T06:43:51;13.43;;;6.65;;
36597;SDS011;22607;49.550;11.940;2023-03-19T06:46:18;11.68;;;4.82;;
36597;SDS011;22607;49.550;11.940;2023-03-19T06:48:45;13.73;;;6.00;;
36597;SDS011;22607;49.550;11.940;2023-03-19T06:51:11;10.48;;;5.10;;
36597;SDS011;22607;49.550;11.940;2023-03-19T06:53:38;13.55;;;6.70;;
36597;SDS011;22607;49.550;11.940;2023-03-19T06:56:05;10.15;;;5.18;;
36597;SDS011;22607;49.550;11.940;2023-03-19T06:58:31;12.90;;;5.43;;
36597;SDS011;22607;49.550;11.940;2023-03-19T07:00:58;10.90;;;5.30;;
36597;SDS011;22607;49.550;11.940;2023-03-19T07:03:24;12.90;;;5.80;;
36597;SDS011;22607;49.550;11.940;2023-03-19T07:05:51;10.95;;;5.10;;
36597;SDS011;22607;49.550;11.940;2023-03-19T07:08:18;11.77;;;5.75;;
36597;SDS011;22607;49.550;11.940;2023-03-19T07:10:44;11.82;;;5.13;;
36597;SDS011;22607;49.550;11.940;2023-03-19T07:13:15;14.10;;;6.15;;
36597;SDS011;22607;49.550;11.940;2023-03-19T07:15:41;13.55;;;6.25;;
36597;SDS011;22607;49.550;11.940;2023-03-19T07:18:08;12.35;;;6.25;;
36597;SDS011;22607;49.550;11.940;2023-03-19T07:20:34;12.18;;;5.68;;
36597;SDS011;22607;49.550;11.940;2023-03-19T07:23:01;12.25;;;5.53;;
36597;SDS011;22607;49.550;11.940;2023-03-19T07:25:28;15.68;;;6.43;;
36597;SDS011;22607;49.550;11.940;2023-03-19T07:27:55;13.63;;;7.53;;
36597;SDS011;22607;49.550;11.940;2023-03-19T07:30:21;14.95;;;7.40;;
36597;SDS011;22607;49.550;11.940;2023-03-19T07:32:49;13.48;;;6.97;;
36597;SDS011;22607;49.550;11.940;2023-03-19T07:35:16;13.40;;;7.28;;
36597;SDS011;22607;49.550;11.940;2023-03-19T07:37:42;13.70;;;7.55;;
36597;SDS011;22607;49.550;11.940;2023-03-19T07:40:10;13.25;;;6.13;;
36597;SDS011;22607;49.550;11.940;2023-03-19T07:42:37;13.95;;;7.53;;
36597;SDS011;22607;49.550;11.940;2023-03-19T07:45:04;13.52;;;6.93;;
36597;SDS011;22607;49.550;11.940;2023-03-19T07:47:31;12.63;;;6.70;;
36597;SDS011;22607;49.550;11.940;2023-03-19T07:49:58;14.25;;;7.20;;
36597;SDS011;22607;49.550;11.940;2023-03-19T07:52:24;12.75;;;6.30;;
36597;SDS011;22607;49.550;11.940;2023-03-19T07:54:52;12.57;;;6.63;;
36597;SDS011;22607;49.550;11.940;2023-03-19T07:57:18;13.07;;;6.72;;
36597;SDS011;22607;49.550;11.940;2023-03-19T07:59:46;11.88;;;6.20;;
36597;SDS011;22607;49.550;11.940;2023-03-19T08:02:12;12.63;;;6.70;;
36597;SDS011;22607;49.550;11.940;2023-03-19T08:04:39;12.02;;;5.57;;
36597;SDS011;22607;49.550;11.940;2023-03-19T08:07:06;12.95;;;5.97;;
36597;SDS011;22607;49.550;11.940;2023-03-19T08:09:36;13.98;;;6.43;;
36597;SDS011;22607;49.550;11.940;2023-03-19T08:12:03;11.50;;;5.75;;
36597;SDS011;22607;49.550;11.940;2023-03-19T08:14:30;13.07;;;6.53;;
36597;SDS011;22607;49.550;11.940;2023-03-19T08:16:57;11.50;;;5.50;;
36597;SDS011;22607;49.550;11.940;2023-03-19T08:19:24;10.90;;;5.10;;
36597;SDS011;22607;49.550;11.940;2023-03-19T08:21:51;11.18;;;5.53;;
36597;SDS011;22607;49.550;11.940;2023-03-19T08:24:17;12.73;;;5.65;;
36597;SDS011;22607;49.550;11.940;2023-03-19T08:26:44;11.60;;;5.78;;
36597;SDS011;22607;49.550;11.940;2023-03-19T08:29:11;13.25;;;6.70;;
36597;SDS011;22607;49.550;11.940;2023-03-19T08:31:38;14.30;;;6.95;;
36597;SDS011;22607;49.550;11.940;2023-03-19T08:34:04;13.68;;;7.05;;
36597;SDS011;22607;49.550;11.940;2023-03-19T08:36:31;16.73;;;8.07;;
36597;SDS011;22607;49.550;11.940;2023-03-19T08:38:57;15.05;;;7.90;;
36597;SDS011;22607;49.550;11.940;2023-03-19T08:41:24;14.90;;;7.40;;
36597;SDS011;22607;49.550;11.940;2023-03-19T08:43:50;17.98;;;9.68;;
36597;SDS011;22607;49.550;11.940;2023-03-19T08:46:18;18.70;;;11.48;;
36597;SDS011;22607;49.550;11.940;2023-03-19T08:48:44;18.08;;;10.90;;
36597;SDS011;22607;49.550;11.940;2023-03-19T08:51:12;15.00;;;9.18;;
36597;SDS011;22607;49.550;11.940;2023-03-19T08:53:39;14.25;;;8.05;;
36597;SDS011;22607;49.550;11.940;2023-03-19T08:56:06;16.85;;;9.07;;
36597;SDS011;22607;49.550;11.940;2023-03-19T08:58:33;16.10;;;8.57;;
36597;SDS011;22607;49.550;11.940;2023-03-19T09:01:04;14.65;;;8.30;;
36597;SDS011;22607;49.550;11.940;2023-03-19T09:03:35;11.52;;;6.47;;
36597;SDS011;22607;49.550;11.940;2023-03-19T09:06:04;14.18;;;7.65;;
36597;SDS011;22607;49.550;11.940;2023-03-19T09:08:33;14.40;;;8.35;;
36597;SDS011;22607;49.550;11.940;2023-03-19T09:11:01;14.90;;;7.55;;
36597;SDS011;22607;49.550;11.940;2023-03-19T09:13:29;15.00;;;7.47;;
36597;SDS011;22607;49.550;11.940;2023-03-19T09:15:55;13.07;;;7.15;;
36597;SDS011;22607;49.550;11.940;2023-03-19T09:18:23;13.90;;;7.90;;
36597;SDS011;22607;49.550;11.940;2023-03-19T09:20:51;12.52;;;6.95;;
36597;SDS011;22607;49.550;11.940;2023-03-19T09:23:19;13.75;;;6.68;;
36597;SDS011;22607;49.550;11.940;2023-03-19T09:25:47;15.43;;;7.65;;
36597;SDS011;22607;49.550;11.940;2023-03-19T09:28:14;14.32;;;7.97;;
36597;SDS011;22607;49.550;11.940;2023-03-19T09:30:41;14.18;;;7.53;;
36597;SDS011;22607;49.550;11.940;2023-03-19T09:33:08;16.20;;;9.52;;
36597;SDS011;22607;49.550;11.940;2023-03-19T09:35:35;16.08;;;9.07;;
36597;SDS011;22607;49.550;11.940;2023-03-19T09:38:04;16.08;;;8.77;;
36597;SDS011;22607;49.550;11.940;2023-03-19T09:43:21;15.43;;;7.75;;
36597;SDS011;22607;49.550;11.940;2023-03-19T09:46:15;14.15;;;8.15;;
36597;SDS011;22607;49.550;11.940;2023-03-19T09:48:53;14.18;;;8.25;;
36597;SDS011;22607;49.550;11.940;2023-03-19T09:51:28;17.02;;;9.05;;
36597;SDS011;22607;49.550;11.940;2023-03-19T09:54:00;18.20;;;9.93;;
36597;SDS011;22607;49.550;11.940;2023-03-19T09:56:32;14.13;;;8.00;;
36597;SDS011;22607;49.550;11.940;2023-03-19T09:58:59;13.30;;;7.53;;
36597;SDS011;22607;49.550;11.940;2023-03-19T10:01:28;13.15;;;6.63;;
36597;SDS011;22607;49.550;11.940;2023-03-19T10:04:05;12.88;;;6.65;;
36597;SDS011;22607;49.550;11.940;2023-03-19T10:07:01;11.23;;;6.13;;
36597;SDS011;22607;49.550;11.940;2023-03-19T10:15:22;10.55;;;4.60;;
36597;SDS011;22607;49.550;11.940;2023-03-19T10:17:55;12.20;;;6.40;;
36597;SDS011;22607;49.550;11.940;2023-03-19T10:20:30;11.40;;;5.60;;
36597;SDS011;22607;49.550;11.940;2023-03-19T10:25:50;11.05;;;5.40;;
36597;SDS011;22607;49.550;11.940;2023-03-19T10:28:20;10.60;;;4.80;;
36597;SDS011;22607;49.550;11.940;2023-03-19T10:34:10;10.23;;;4.50;;
36597;SDS011;22607;49.550;11.940;2023-03-19T10:36:56;8.15;;;3.60;;
36597;SDS011;22607;49.550;11.940;2023-03-19T10:39:24;9.05;;;3.25;;
36597;SDS011;22607;49.550;11.940;2023-03-19T10:41:59;7.75;;;3.33;;
36597;SDS011;22607;49.550;11.940;2023-03-19T10:44:34;8.80;;;3.72;;
36597;SDS011;22607;49.550;11.940;2023-03-19T10:47:12;8.50;;;3.70;;
36597;SDS011;22607;49.550;11.940;2023-03-19T10:49:40;9.05;;;3.38;;
36597;SDS011;22607;49.550;11.940;2023-03-19T10:52:15;7.30;;;2.95;;
36597;SDS011;22607;49.550;11.940;2023-03-19T10:54:45;8.38;;;2.90;;
36597;SDS011;22607;49.550;11.940;2023-03-19T10:57:20;8.73;;;3.30;;
36597;SDS011;22607;49.550;11.940;2023-03-19T10:59:48;8.80;;;3.63;;
36597;SDS011;22607;49.550;11.940;2023-03-19T11:02:24;9.57;;;3.72;;
36597;SDS011;22607;49.550;11.940;2023-03-19T11:07:38;9.95;;;4.00;;
36597;SDS011;22607;49.550;11.940;2023-03-19T11:10:12;7.63;;;2.72;;
36597;SDS011;22607;49.550;11.940;2023-03-19T11:12:41;9.63;;;2.67;;
36597;SDS011;22607;49.550;11.940;2023-03-19T11:15:25;7.75;;;2.90;;
36597;SDS011;22607;49.550;11.940;2023-03-19T11:17:56;7.78;;;2.47;;
36597;SDS011;22607;49.550;11.940;2023-03-19T11:20:30;10.48;;;2.83;;
36597;SDS011;22607;49.550;11.940;2023-03-19T11:22:59;7.00;;;2.10;;
36597;SDS011;22607;49.550;11.940;2023-03-19T11:25:30;6.60;;;2.30;;
36597;SDS011;22607;49.550;11.940;2023-03-19T11:30:35;8.48;;;2.45;;
36597;SDS011;22607;49.550;11.940;2023-03-19T11:38:38;6.78;;;2.17;;
36597;SDS011;22607;49.550;11.940;2023-03-19T11:41:17;7.85;;;2.70;;
36597;SDS011;22607;49.550;11.940;2023-03-19T11:49:29;7.35;;;2.15;;
36597;SDS011;22607;49.550;11.940;2023-03-19T11:52:22;6.43;;;1.90;;
36597;SDS011;22607;49.550;11.940;2023-03-19T12:00:46;7.47;;;2.58;;
36597;SDS011;22607;49.550;11.940;2023-03-19T12:03:20;6.70;;;2.30;;
36597;SDS011;22607;49.550;11.940;2023-03-19T12:11:02;7.15;;;2.78;;
36597;SDS011;22607;49.550;11.940;2023-03-19T12:33:26;7.00;;;2.25;;
36597;SDS011;22607;49.550;11.940;2023-03-19T12:36:12;7.97;;;2.45;;
36597;SDS011;22607;49.550;11.940;2023-03-19T12:38:48;5.90;;;1.73;;
36597;SDS011;22607;49.550;11.940;2023-03-19T12:41:20;6.45;;;2.10;;
36597;SDS011;22607;49.550;11.940;2023-03-19T12:44:05;5.65;;;1.90;;
36597;SDS011;22607;49.550;11.940;2023-03-19T12:46:50;5.30;;;2.00;;
36597;SDS011;22607;49.550;11.940;2023-03-19T12:49:36;6.20;;;2.13;;
36597;SDS011;22607;49.550;11.940;2023-03-19T12:52:28;7.03;;;2.20;;
36597;SDS011;22607;49.550;11.940;2023-03-19T12:55:20;6.78;;;2.10;;
36597;SDS011;22607;49.550;11.940;2023-03-19T12:57:52;6.45;;;1.75;;
36597;SDS011;22607;49.550;11.940;2023-03-19T13:05:46;5.57;;;1.90;;
36597;SDS011;22607;49.550;11.940;2023-03-19T13:08:28;7.55;;;1.80;;
36597;SDS011;22607;49.550;11.940;2023-03-19T13:11:09;5.78;;;1.90;;
36597;SDS011;22607;49.550;11.940;2023-03-19T13:19:39;4.97;;;1.60;;
36597;SDS011;22607;49.550;11.940;2023-03-19T13:22:12;6.00;;;1.80;;
36597;SDS011;22607;49.550;11.940;2023-03-19T13:24:42;6.15;;;1.85;;
36597;SDS011;22607;49.550;11.940;2023-03-19T13:27:30;5.63;;;1.38;;
36597;SDS011;22607;49.550;11.940;2023-03-19T13:32:38;4.45;;;1.35;;
36597;SDS011;22607;49.550;11.940;2023-03-19T13:35:52;5.53;;;1.48;;
36597;SDS011;22607;49.550;11.940;2023-03-19T13:38:13;5.18;;;1.33;;
36597;SDS011;22607;49.550;11.940;2023-03-19T13:40:44;6.03;;;1.58;;
36597;SDS011;22607;49.550;11.940;2023-03-19T13:50:59;5.25;;;1.65;;
36597;SDS011;22607;49.550;11.940;2023-03-19T13:53:39;6.40;;;1.88;;
36597;SDS011;22607;49.550;11.940;2023-03-19T13:56:08;7.32;;;2.22;;
36597;SDS011;22607;49.550;11.940;2023-03-19T14:01:41;4.15;;;1.20;;
36597;SDS011;22607;49.550;11.940;2023-03-19T14:06:57;5.88;;;1.63;;
36597;SDS011;22607;49.550;11.940;2023-03-19T14:12:21;6.45;;;2.03;;
36597;SDS011;22607;49.550;11.940;2023-03-19T14:17:36;7.00;;;2.03;;
36597;SDS011;22607;49.550;11.940;2023-03-19T14:29:14;6.63;;;1.60;;
36597;SDS011;22607;49.550;11.940;2023-03-19T14:31:46;4.30;;;1.10;;
36597;SDS011;22607;49.550;11.940;2023-03-19T14:39:20;5.15;;;1.20;;
36597;SDS011;22607;49.550;11.940;2023-03-19T14:41:50;5.25;;;1.50;;
36597;SDS011;22607;49.550;11.940;2023-03-19T14:56:30;5.35;;;1.60;;
36597;SDS011;22607;49.550;11.940;2023-03-19T14:58:59;5.40;;;1.48;;
36597;SDS011;22607;49.550;11.940;2023-03-19T15:01:30;7.03;;;1.55;;
36597;SDS011;22607;49.550;11.940;2023-03-19T15:04:03;6.38;;;1.80;;
36597;SDS011;22607;49.550;11.940;2023-03-19T15:06:38;5.22;;;1.35;;
36597;SDS011;22607;49.550;11.940;2023-03-19T15:09:11;4.53;;;1.40;;
36597;SDS011;22607;49.550;11.940;2023-03-19T15:11:59;5.15;;;1.40;;
36597;SDS011;22607;49.550;11.940;2023-03-19T15:17:32;5.18;;;1.45;;
36597;SDS011;22607;49.550;11.940;2023-03-19T15:20:08;5.78;;;1.48;;
36597;SDS011;22607;49.550;11.940;2023-03-19T15:22:42;4.53;;;1.15;;
36597;SDS011;22607;49.550;11.940;2023-03-19T15:25:12;3.90;;;1.13;;
36597;SDS011;22607;49.550;11.940;2023-03-19T15:27:40;6.75;;;1.70;;
36597;SDS011;22607;49.550;11.940;2023-03-19T15:30:24;6.28;;;1.40;;
36597;SDS011;22607;49.550;11.940;2023-03-19T15:32:54;6.07;;;1.60;;
36597;SDS011;22607;49.550;11.940;2023-03-19T15:35:39;5.35;;;1.48;;
36597;SDS011;22607;49.550;11.940;2023-03-19T15:38:07;5.28;;;1.50;;
36597;SDS011;22607;49.550;11.940;2023-03-19T15:40:36;5.90;;;1.38;;
36597;SDS011;22607;49.550;11.940;2023-03-19T15:43:04;5.25;;;1.30;;
36597;SDS011;22607;49.550;11.940;2023-03-19T15:45:31;6.90;;;1.60;;
36597;SDS011;22607;49.550;11.940;2023-03-19T15:48:03;5.90;;;1.52;;
36597;SDS011;22607;49.550;11.940;2023-03-19T15:50:58;4.15;;;1.35;;
36597;SDS011;22607;49.550;11.940;2023-03-19T15:53:30;4.35;;;1.30;;
36597;SDS011;22607;49.550;11.940;2023-03-19T15:55:59;5.18;;;1.30;;
36597;SDS011;22607;49.550;11.940;2023-03-19T15:58:27;5.15;;;1.20;;
36597;SDS011;22607;49.550;11.940;2023-03-19T16:00:57;4.28;;;1.20;;
36597;SDS011;22607;49.550;11.940;2023-03-19T16:03:31;3.30;;;1.10;;
36597;SDS011;22607;49.550;11.940;2023-03-19T16:08:45;4.15;;;1.17;;
36597;SDS011;22607;49.550;11.940;2023-03-19T16:13:56;5.25;;;1.23;;
36597;SDS011;22607;49.550;11.940;2023-03-19T16:16:46;4.70;;;1.20;;
36597;SDS011;22607;49.550;11.940;2023-03-19T16:19:33;4.65;;;1.20;;
36597;SDS011;22607;49.550;11.940;2023-03-19T16:22:23;4.75;;;1.23;;
36597;SDS011;22607;49.550;11.940;2023-03-19T16:24:51;5.55;;;1.20;;
36597;SDS011;22607;49.550;11.940;2023-03-19T16:27:20;4.18;;;1.00;;
36597;SDS011;22607;49.550;11.940;2023-03-19T16:29:55;4.63;;;1.20;;
36597;SDS011;22607;49.550;11.940;2023-03-19T16:32:24;5.70;;;1.50;;
36597;SDS011;22607;49.550;11.940;2023-03-19T16:34:53;5.80;;;1.50;;
36597;SDS011;22607;49.550;11.940;2023-03-19T16:42:44;6.55;;;1.80;;
36597;SDS011;22607;49.550;11.940;2023-03-19T16:47:40;4.93;;;1.20;;
36597;SDS011;22607;49.550;11.940;2023-03-19T16:50:12;4.25;;;1.30;;
36597;SDS011;22607;49.550;11.940;2023-03-19T16:52:40;5.10;;;1.20;;
36597;SDS011;22607;49.550;11.940;2023-03-19T16:55:17;6.20;;;1.40;;
36597;SDS011;22607;49.550;11.940;2023-03-19T16:57:49;4.25;;;1.45;;
36597;SDS011;22607;49.550;11.940;2023-03-19T17:00:25;5.65;;;1.38;;
36597;SDS011;22607;49.550;11.940;2023-03-19T17:02:56;5.95;;;1.55;;